Time;durP1;ratioP1;P1;durP2;ratioP2;P2;SDS_P1;SDS_P2;PMS_P1;PMS_P2;Temp;Humidity;BMP_temperature;BMP_pressure;BME280_temperature;BME280_humidity;BME280_pressure;Samples;Min_cycle;Max_cycle;Signal;HPM_P1;HPM_P2
2024/01/21 00:02:11;;;;;;;7.68;4.70;;;2.40;68.20;;;;;;5039760;28;20033;-67
2024/01/21 00:04:38;;;;;;;7.72;4.28;;;2.40;68.40;;;;;;5034481;28;20791;-67
2024/01/21 00:07:04;;;;;;;9.27;4.55;;;2.40;68.50;;;;;;5031757;28;20026;-68
2024/01/21 00:09:29;;;;;;;5.57;4.30;;;2.40;68.50;;;;;;5023687;28;20496;-68
2024/01/21 00:11:55;;;;;;;7.75;4.13;;;2.30;68.60;;;;;;5027391;28;20112;-68
2024/01/21 00:14:21;;;;;;;7.28;4.05;;;2.30;68.70;;;;;;5029322;28;20041;-67
2024/01/21 00:16:46;;;;;;;6.90;4.47;;;2.30;68.80;;;;;;5032172;28;20491;-67
2024/01/21 00:19:12;;;;;;;9.43;4.65;;;2.30;68.90;;;;;;5030025;28;20034;-67
2024/01/21 00:21:38;;;;;;;9.20;4.30;;;2.20;69.00;;;;;;5027221;28;20055;-68
2024/01/21 00:24:04;;;;;;;7.00;4.10;;;2.20;69.10;;;;;;5031758;28;20024;-67
2024/01/21 00:26:30;;;;;;;12.00;4.75;;;2.20;69.20;;;;;;5033090;28;20030;-67
2024/01/21 00:29:00;;;;;;;7.00;3.97;;;2.20;69.20;;;;;;5031990;28;20033;-67
2024/01/21 00:31:26;;;;;;;5.63;4.80;;;2.20;69.30;;;;;;5032707;28;20150;-68
2024/01/21 00:33:52;;;;;;;6.20;4.35;;;2.20;69.30;;;;;;5033430;28;20029;-68
2024/01/21 00:36:18;;;;;;;4.00;3.03;;;2.10;69.30;;;;;;5032382;28;20039;-68
2024/01/21 00:38:43;;;;;;;12.18;3.83;;;2.10;69.40;;;;;;5023321;28;20568;-67
2024/01/21 00:41:13;;;;;;;8.38;3.97;;;2.10;69.50;;;;;;5036412;28;20110;-68
2024/01/21 00:43:39;;;;;;;7.22;4.25;;;2.10;69.50;;;;;;5033976;28;20175;-68
2024/01/21 00:46:05;;;;;;;9.75;3.80;;;2.10;69.60;;;;;;5033585;28;20140;-68
2024/01/21 00:48:32;;;;;;;6.57;4.00;;;2.10;69.70;;;;;;5030343;28;20033;-68
2024/01/21 00:50:57;;;;;;;11.23;4.55;;;2.10;69.60;;;;;;5031870;28;20091;-68
2024/01/21 00:53:23;;;;;;;8.95;3.67;;;2.00;69.50;;;;;;5025831;28;20424;-68
2024/01/21 00:55:49;;;;;;;7.13;3.72;;;2.00;69.50;;;;;;5048957;28;20485;-68
2024/01/21 00:58:14;;;;;;;6.18;3.25;;;2.00;69.50;;;;;;5027154;28;20112;-68
2024/01/21 01:00:40;;;;;;;6.20;3.17;;;2.00;69.50;;;;;;5024813;28;20029;-68
2024/01/21 01:03:06;;;;;;;6.07;3.17;;;2.00;69.50;;;;;;5026825;28;20535;-68
2024/01/21 01:05:32;;;;;;;7.05;3.55;;;2.00;69.40;;;;;;5031766;28;20164;-68
2024/01/21 01:07:58;;;;;;;7.25;4.10;;;2.00;69.40;;;;;;5022376;28;20445;-68
2024/01/21 01:10:24;;;;;;;5.75;3.42;;;2.00;69.50;;;;;;5026965;28;20073;-68
2024/01/21 01:12:49;;;;;;;5.30;2.40;;;2.00;69.60;;;;;;5033181;28;20473;-68
2024/01/21 01:15:15;;;;;;;4.00;3.15;;;2.00;69.50;;;;;;5032743;28;20411;-68
2024/01/21 01:17:41;;;;;;;4.53;3.42;;;2.00;69.40;;;;;;5032314;28;20037;-68
2024/01/21 01:20:07;;;;;;;4.82;2.80;;;2.00;69.20;;;;;;5038778;28;20129;-68
2024/01/21 01:22:33;;;;;;;3.20;2.38;;;2.00;69.20;;;;;;5032245;28;20026;-68
2024/01/21 01:24:59;;;;;;;6.43;3.17;;;2.00;69.10;;;;;;5041739;28;20503;-68
2024/01/21 01:27:26;;;;;;;4.47;2.60;;;2.00;69.10;;;;;;5038888;28;20025;-70
2024/01/21 01:29:52;;;;;;;4.32;3.00;;;2.00;69.10;;;;;;5072156;28;20041;-70
2024/01/21 01:32:18;;;;;;;4.07;2.47;;;2.00;69.00;;;;;;5035397;28;20195;-70
2024/01/21 01:34:44;;;;;;;4.82;2.88;;;1.90;68.70;;;;;;5035198;28;20040;-70
2024/01/21 01:37:11;;;;;;;3.20;2.17;;;2.00;68.70;;;;;;5031358;28;20392;-70
2024/01/21 01:39:37;;;;;;;7.85;2.15;;;1.90;68.40;;;;;;5033387;28;20407;-68
2024/01/21 01:42:03;;;;;;;5.13;2.53;;;1.90;67.80;;;;;;5031414;28;20145;-68
2024/01/21 01:44:29;;;;;;;5.88;2.60;;;1.90;67.80;;;;;;5036307;28;20037;-68
2024/01/21 01:46:55;;;;;;;4.63;3.15;;;1.90;67.70;;;;;;5031791;28;20029;-67
2024/01/21 01:49:21;;;;;;;4.07;2.30;;;1.90;67.60;;;;;;5045932;28;20021;-68
2024/01/21 01:51:46;;;;;;;5.57;2.78;;;1.90;67.60;;;;;;5031386;28;20063;-68
2024/01/21 01:54:15;;;;;;;4.95;3.00;;;1.90;67.50;;;;;;5033766;28;20481;-68
2024/01/21 01:56:41;;;;;;;5.28;3.30;;;1.90;67.60;;;;;;5039075;28;20381;-68
2024/01/21 01:59:10;;;;;;;4.18;2.13;;;1.90;67.60;;;;;;5032355;28;20034;-68
2024/01/21 02:01:39;;;;;;;4.82;2.80;;;1.80;67.60;;;;;;5031143;28;20053;-68
2024/01/21 02:04:09;;;;;;;3.85;2.50;;;1.90;67.60;;;;;;5029912;28;20029;-67
2024/01/21 02:06:35;;;;;;;5.35;2.45;;;1.90;67.60;;;;;;5039292;28;20028;-67
2024/01/21 02:09:00;;;;;;;6.60;2.15;;;1.90;67.50;;;;;;5037508;28;20032;-68
2024/01/21 02:11:27;;;;;;;5.03;2.75;;;1.90;67.50;;;;;;5035231;28;20067;-68
2024/01/21 02:13:52;;;;;;;3.08;2.42;;;1.90;67.40;;;;;;5041896;28;20119;-67
2024/01/21 02:16:18;;;;;;;2.78;1.70;;;1.90;67.40;;;;;;5034454;28;20114;-68
2024/01/21 02:18:45;;;;;;;3.78;2.42;;;1.90;67.50;;;;;;5036262;28;20480;-68
2024/01/21 02:21:12;;;;;;;3.40;2.13;;;1.80;67.40;;;;;;5037818;28;20076;-70
2024/01/21 02:23:38;;;;;;;6.10;2.45;;;1.80;67.40;;;;;;5040207;28;20033;-68
2024/01/21 02:26:03;;;;;;;2.05;1.67;;;1.80;67.40;;;;;;5041501;28;20467;-68
2024/01/21 02:28:29;;;;;;;4.22;2.38;;;1.80;67.30;;;;;;5030413;28;20060;-68
2024/01/21 02:30:55;;;;;;;4.05;2.22;;;1.80;67.10;;;;;;5030983;28;20037;-70
2024/01/21 02:33:21;;;;;;;4.10;2.50;;;1.80;67.10;;;;;;5021151;28;20052;-70
2024/01/21 02:35:46;;;;;;;2.88;1.83;;;1.80;67.00;;;;;;5035140;28;20040;-68
2024/01/21 02:38:12;;;;;;;4.10;2.83;;;1.80;67.10;;;;;;5037930;28;20418;-68
2024/01/21 02:40:38;;;;;;;2.83;1.90;;;1.80;67.00;;;;;;5036562;28;20029;-68
2024/01/21 02:43:06;;;;;;;4.55;2.35;;;1.80;67.00;;;;;;5033094;28;20471;-68
2024/01/21 02:45:35;;;;;;;2.65;2.17;;;1.90;67.00;;;;;;5070048;28;20025;-68
2024/01/21 02:48:01;;;;;;;3.60;2.40;;;1.80;66.80;;;;;;5035747;28;20036;-68
2024/01/21 02:50:27;;;;;;;3.20;2.25;;;1.80;66.90;;;;;;5037318;28;20033;-68
2024/01/21 02:52:52;;;;;;;4.15;2.42;;;1.80;67.00;;;;;;5038750;28;20131;-68
2024/01/21 02:55:18;;;;;;;4.25;2.60;;;1.80;66.90;;;;;;5038594;28;20025;-68
2024/01/21 02:57:44;;;;;;;2.78;2.08;;;1.80;67.00;;;;;;5035279;28;20025;-68
2024/01/21 03:00:10;;;;;;;2.88;1.85;;;1.80;67.00;;;;;;5029305;28;20224;-68
2024/01/21 03:02:37;;;;;;;3.47;1.25;;;1.80;67.00;;;;;;5032904;28;20511;-68
2024/01/21 03:05:03;;;;;;;4.22;2.58;;;1.90;67.00;;;;;;5034926;28;20025;-68
2024/01/21 03:07:28;;;;;;;4.90;2.42;;;1.90;67.00;;;;;;5033295;28;20037;-67
2024/01/21 03:09:54;;;;;;;4.18;2.08;;;1.90;66.90;;;;;;5034802;28;20392;-68
2024/01/21 03:12:20;;;;;;;4.88;2.38;;;1.80;67.00;;;;;;5041917;28;20037;-68
2024/01/21 03:14:45;;;;;;;3.65;2.17;;;1.90;67.00;;;;;;5045005;28;20032;-67
2024/01/21 03:17:11;;;;;;;4.97;1.80;;;1.80;67.00;;;;;;5041235;28;20485;-68
2024/01/21 03:19:37;;;;;;;3.63;1.98;;;1.90;67.10;;;;;;5042125;28;20400;-68
2024/01/21 03:22:03;;;;;;;3.17;1.80;;;1.90;67.10;;;;;;5039203;28;20033;-68
2024/01/21 03:24:30;;;;;;;5.18;2.22;;;1.90;67.10;;;;;;5036252;28;20496;-68
2024/01/21 03:26:56;;;;;;;5.13;2.00;;;1.90;67.10;;;;;;5033743;28;20030;-70
2024/01/21 03:29:22;;;;;;;2.53;2.05;;;1.90;67.20;;;;;;5035502;28;20033;-70
2024/01/21 03:31:48;;;;;;;3.00;1.92;;;1.90;67.10;;;;;;5037227;28;20036;-70
2024/01/21 03:34:14;;;;;;;4.40;2.35;;;2.00;67.20;;;;;;5024681;28;20032;-70
2024/01/21 03:36:40;;;;;;;6.63;2.35;;;2.00;67.00;;;;;;5037240;28;20265;-70
2024/01/21 03:39:05;;;;;;;3.03;1.63;;;2.00;67.00;;;;;;5038272;28;20053;-70
2024/01/21 03:41:31;;;;;;;3.30;2.10;;;2.00;67.00;;;;;;5039098;28;20785;-70
2024/01/21 03:43:57;;;;;;;4.70;2.15;;;2.00;66.80;;;;;;5039139;28;20539;-70
2024/01/21 03:46:24;;;;;;;2.00;1.45;;;1.90;66.80;;;;;;5041831;28;20030;-70
2024/01/21 03:48:49;;;;;;;3.45;1.85;;;1.90;66.70;;;;;;5030435;28;20053;-70
2024/01/21 03:51:15;;;;;;;4.10;2.28;;;2.00;66.80;;;;;;5031584;28;20068;-70
2024/01/21 03:53:41;;;;;;;3.55;2.00;;;2.00;66.60;;;;;;5038460;28;20034;-70
2024/01/21 03:56:17;;;;;;;4.53;1.95;;;2.00;66.50;;;;;;5032741;28;20044;-70
2024/01/21 03:58:44;;;;;;;2.28;1.52;;;2.00;66.40;;;;;;5035673;28;20099;-70
2024/01/21 04:01:09;;;;;;;2.85;2.22;;;2.00;66.40;;;;;;5027929;28;20057;-70
2024/01/21 04:03:35;;;;;;;3.63;1.83;;;2.00;66.40;;;;;;5031350;28;20060;-70
2024/01/21 04:06:01;;;;;;;4.20;1.80;;;2.00;66.40;;;;;;5033490;28;20666;-70
2024/01/21 04:08:27;;;;;;;2.25;1.38;;;2.00;66.30;;;;;;5039142;28;20045;-70
2024/01/21 04:10:54;;;;;;;2.78;1.95;;;2.00;66.20;;;;;;5036855;28;20060;-70
2024/01/21 04:13:20;;;;;;;1.98;1.33;;;2.00;66.20;;;;;;5036074;28;20045;-70
2024/01/21 04:15:46;;;;;;;3.58;1.60;;;2.00;66.10;;;;;;5040157;28;20034;-70
2024/01/21 04:18:13;;;;;;;2.90;2.22;;;2.10;66.10;;;;;;5040904;28;20047;-70
2024/01/21 04:20:39;;;;;;;2.33;1.58;;;2.10;66.00;;;;;;5043636;28;20044;-68
2024/01/21 04:23:04;;;;;;;2.60;1.40;;;2.10;65.80;;;;;;5040395;28;20033;-67
2024/01/21 04:25:30;;;;;;;2.70;1.60;;;2.10;65.70;;;;;;5038745;28;20036;-68
2024/01/21 04:27:56;;;;;;;2.90;1.95;;;2.00;65.80;;;;;;5034747;28;20033;-68
2024/01/21 04:30:21;;;;;;;2.72;1.55;;;2.00;65.80;;;;;;5066864;28;20084;-68
2024/01/21 04:32:47;;;;;;;2.65;1.55;;;2.00;65.80;;;;;;5042596;28;20034;-67
2024/01/21 04:35:13;;;;;;;2.35;1.50;;;2.00;65.90;;;;;;5034231;28;20087;-68
2024/01/21 04:37:39;;;;;;;3.70;1.58;;;2.00;66.00;;;;;;5040173;28;20037;-68
2024/01/21 04:40:05;;;;;;;2.63;1.83;;;1.90;65.90;;;;;;5037899;28;21293;-68
2024/01/21 04:42:31;;;;;;;2.70;1.52;;;2.00;66.00;;;;;;5038298;28;20029;-68
2024/01/21 04:44:57;;;;;;;1.63;1.33;;;1.90;65.90;;;;;;5034350;28;20068;-68
2024/01/21 04:47:23;;;;;;;3.38;1.52;;;1.90;65.60;;;;;;5039332;28;20021;-70
2024/01/21 04:49:48;;;;;;;2.67;1.88;;;1.90;65.70;;;;;;5037293;28;20040;-70
2024/01/21 04:52:14;;;;;;;1.88;1.60;;;1.90;65.30;;;;;;5042374;28;20033;-68
2024/01/21 04:54:40;;;;;;;3.15;1.48;;;1.90;65.50;;;;;;5038249;28;20037;-68
2024/01/21 04:57:05;;;;;;;2.42;1.60;;;2.00;65.50;;;;;;5042805;28;20037;-68
2024/01/21 04:59:31;;;;;;;3.85;2.03;;;2.00;65.40;;;;;;5037706;28;20028;-68
2024/01/21 05:01:57;;;;;;;4.38;2.05;;;2.00;65.50;;;;;;5042034;28;20448;-70
2024/01/21 05:04:23;;;;;;;5.38;1.83;;;2.00;65.40;;;;;;5037334;28;20384;-70
2024/01/21 05:06:48;;;;;;;3.05;1.92;;;2.00;65.50;;;;;;5042307;28;20480;-70
2024/01/21 05:09:14;;;;;;;1.45;1.35;;;2.00;65.30;;;;;;5040539;28;20026;-70
2024/01/21 05:11:40;;;;;;;6.90;2.40;;;2.00;65.30;;;;;;5038434;28;20483;-68
2024/01/21 05:14:05;;;;;;;1.23;1.13;;;2.10;65.20;;;;;;5026831;28;20488;-68
2024/01/21 05:16:31;;;;;;;4.75;1.67;;;2.10;65.10;;;;;;5034421;28;20086;-68
2024/01/21 05:18:57;;;;;;;1.98;1.42;;;2.10;65.10;;;;;;5035419;28;20096;-70
2024/01/21 05:21:23;;;;;;;2.60;1.70;;;2.20;65.00;;;;;;5039002;28;20064;-70
2024/01/21 05:23:52;;;;;;;3.65;1.85;;;2.20;64.70;;;;;;5021432;28;20108;-70
2024/01/21 05:26:18;;;;;;;2.97;1.63;;;2.20;64.70;;;;;;5033427;28;20057;-70
2024/01/21 05:28:44;;;;;;;3.95;1.25;;;2.30;64.70;;;;;;5037972;28;20060;-70
2024/01/21 05:31:10;;;;;;;1.02;0.90;;;2.30;64.40;;;;;;5033101;28;20040;-70
2024/01/21 05:33:36;;;;;;;2.22;1.35;;;2.30;64.40;;;;;;5035872;28;20025;-70
2024/01/21 05:36:02;;;;;;;3.40;1.55;;;2.30;64.50;;;;;;5034733;28;20130;-70
2024/01/21 05:38:28;;;;;;;4.20;1.75;;;2.40;64.40;;;;;;5034945;28;20504;-68
2024/01/21 05:40:54;;;;;;;2.35;1.52;;;2.40;64.20;;;;;;5036481;28;20599;-68
2024/01/21 05:43:19;;;;;;;1.85;1.42;;;2.40;64.20;;;;;;5035199;28;20179;-70
2024/01/21 05:45:45;;;;;;;1.92;1.50;;;2.40;63.90;;;;;;5039326;28;20157;-68
2024/01/21 05:48:11;;;;;;;1.88;1.27;;;2.40;63.90;;;;;;5028574;28;20782;-67
2024/01/21 05:50:36;;;;;;;4.25;1.83;;;2.50;63.80;;;;;;5042452;28;20376;-68
2024/01/21 05:53:05;;;;;;;2.55;1.75;;;2.50;63.30;;;;;;5039430;28;20388;-68
2024/01/21 05:55:31;;;;;;;1.42;1.30;;;2.50;63.50;;;;;;5036403;28;20029;-68
2024/01/21 05:57:57;;;;;;;3.35;2.22;;;2.50;63.60;;;;;;5037820;28;20060;-71
2024/01/21 06:00:23;;;;;;;3.60;2.10;;;2.50;63.70;;;;;;5041106;28;20085;-70
2024/01/21 06:02:49;;;;;;;4.63;2.08;;;2.50;63.70;;;;;;5038560;28;20037;-70
2024/01/21 06:05:15;;;;;;;3.50;1.98;;;2.50;63.10;;;;;;5040061;28;20109;-70
2024/01/21 06:07:41;;;;;;;2.15;1.90;;;2.50;63.40;;;;;;5033833;28;20088;-70
2024/01/21 06:10:07;;;;;;;3.95;2.42;;;2.60;62.70;;;;;;5032857;28;20041;-70
2024/01/21 06:12:32;;;;;;;2.72;1.60;;;2.60;62.70;;;;;;5033348;28;20052;-70
2024/01/21 06:14:58;;;;;;;3.00;1.52;;;2.60;62.50;;;;;;5034584;28;20503;-70
2024/01/21 06:17:23;;;;;;;2.03;1.50;;;2.60;62.00;;;;;;5031922;28;20499;-70
2024/01/21 06:19:49;;;;;;;3.83;1.67;;;2.60;61.90;;;;;;5034778;28;20543;-67
2024/01/21 06:22:15;;;;;;;3.20;1.77;;;2.70;61.60;;;;;;5038162;28;20085;-68
2024/01/21 06:24:40;;;;;;;2.63;1.85;;;2.70;61.40;;;;;;5034245;28;20104;-67
2024/01/21 06:27:06;;;;;;;3.63;1.60;;;2.70;61.40;;;;;;5034542;28;20036;-67
2024/01/21 06:29:32;;;;;;;4.25;2.00;;;2.70;61.10;;;;;;5031704;28;20025;-68
2024/01/21 06:31:57;;;;;;;2.80;1.98;;;2.80;61.00;;;;;;5041299;28;20547;-70
2024/01/21 06:34:23;;;;;;;5.43;2.15;;;2.80;61.00;;;;;;5030995;28;20171;-70
2024/01/21 06:36:49;;;;;;;2.83;1.52;;;2.80;60.70;;;;;;5034110;28;20037;-71
2024/01/21 06:39:14;;;;;;;2.55;1.85;;;2.90;60.00;;;;;;5035283;28;20029;-70
2024/01/21 06:41:40;;;;;;;5.45;2.65;;;2.90;60.00;;;;;;5037426;28;20151;-70
2024/01/21 06:44:06;;;;;;;2.38;1.40;;;3.00;60.10;;;;;;5032183;28;20029;-70
2024/01/21 06:46:32;;;;;;;4.15;1.70;;;3.00;60.30;;;;;;5036412;28;20037;-70
2024/01/21 06:48:57;;;;;;;3.42;1.70;;;3.10;60.50;;;;;;5034393;28;20045;-70
2024/01/21 06:51:34;;;;;;;2.85;1.58;;;3.10;59.80;;;;;;5040998;28;20478;-71
2024/01/21 06:54:00;;;;;;;3.45;2.20;;;3.10;60.00;;;;;;5032967;28;20029;-71
2024/01/21 06:56:26;;;;;;;3.80;2.00;;;3.10;60.00;;;;;;5031680;28;20033;-70
2024/01/21 06:58:53;;;;;;;3.75;1.80;;;3.10;59.80;;;;;;5039372;28;20037;-71
2024/01/21 07:01:18;;;;;;;3.10;2.13;;;3.20;60.10;;;;;;5038506;28;20092;-71
2024/01/21 07:03:45;;;;;;;2.28;1.85;;;3.10;60.00;;;;;;5037356;28;20484;-71
2024/01/21 07:06:11;;;;;;;3.55;1.88;;;3.20;60.20;;;;;;5032300;28;20461;-71
2024/01/21 07:08:38;;;;;;;3.28;1.98;;;3.20;60.20;;;;;;5035567;28;20108;-71
2024/01/21 07:11:10;;;;;;;4.20;2.17;;;3.30;60.30;;;;;;5029264;28;20013;-68
2024/01/21 07:13:36;;;;;;;5.05;2.83;;;3.20;60.00;;;;;;5041443;28;20035;-67
2024/01/21 07:16:05;;;;;;;3.35;1.50;;;3.30;60.20;;;;;;5029621;28;20048;-67
2024/01/21 07:18:30;;;;;;;3.08;1.92;;;3.30;60.50;;;;;;5038784;28;20033;-67
2024/01/21 07:20:56;;;;;;;5.90;2.10;;;3.30;60.70;;;;;;5033585;28;20103;-71
2024/01/21 07:23:22;;;;;;;3.88;1.80;;;3.30;60.80;;;;;;5036849;28;20109;-71
2024/01/21 07:25:47;;;;;;;3.17;2.17;;;3.30;61.50;;;;;;5036411;28;20053;-71
2024/01/21 07:28:15;;;;;;;3.25;2.30;;;3.30;60.90;;;;;;5034055;28;20080;-71
2024/01/21 07:30:41;;;;;;;3.45;2.13;;;3.30;60.50;;;;;;5037907;28;20495;-71
2024/01/21 07:33:06;;;;;;;4.57;2.55;;;3.30;60.40;;;;;;5035967;28;20496;-71
2024/01/21 07:35:32;;;;;;;4.00;1.63;;;3.40;60.50;;;;;;5033905;28;20025;-71
2024/01/21 07:37:58;;;;;;;5.20;2.53;;;3.40;60.40;;;;;;5042639;28;20048;-71
2024/01/21 07:40:24;;;;;;;5.32;2.08;;;3.40;60.40;;;;;;5037956;28;20308;-71
2024/01/21 07:42:50;;;;;;;8.88;2.08;;;3.50;60.40;;;;;;5033944;28;20061;-71
2024/01/21 07:45:15;;;;;;;2.67;1.98;;;3.50;60.20;;;;;;5041011;28;20029;-71
2024/01/21 07:47:41;;;;;;;3.00;1.75;;;3.50;59.90;;;;;;5039382;28;20033;-71
2024/01/21 07:50:07;;;;;;;3.92;1.98;;;3.60;59.70;;;;;;5041742;28;20037;-71
2024/01/21 07:52:33;;;;;;;5.35;2.00;;;3.60;59.60;;;;;;5038599;28;20029;-71
2024/01/21 07:54:58;;;;;;;5.88;2.40;;;3.60;59.10;;;;;;5039000;28;20024;-71
2024/01/21 07:57:24;;;;;;;3.90;2.25;;;3.70;59.30;;;;;;5037282;28;20025;-71
2024/01/21 07:59:50;;;;;;;26.70;2.33;;;3.70;59.20;;;;;;5035370;28;20086;-71
2024/01/21 08:02:16;;;;;;;4.45;1.83;;;3.80;59.10;;;;;;5040869;28;20083;-71
2024/01/21 08:04:42;;;;;;;3.33;2.30;;;3.80;58.70;;;;;;5045644;28;20036;-71
2024/01/21 08:07:08;;;;;;;5.40;2.05;;;3.80;59.00;;;;;;5044108;28;20484;-71
2024/01/21 08:09:34;;;;;;;3.55;2.10;;;3.90;58.00;;;;;;5034771;28;20030;-68
2024/01/21 08:12:00;;;;;;;2.67;2.42;;;3.90;58.00;;;;;;5038853;28;20036;-68
2024/01/21 08:14:26;;;;;;;2.55;1.75;;;3.90;57.30;;;;;;5040956;28;20025;-68
2024/01/21 08:16:52;;;;;;;4.70;2.15;;;4.00;57.50;;;;;;5035385;28;20064;-67
2024/01/21 08:19:19;;;;;;;3.83;2.42;;;4.00;57.10;;;;;;5030545;28;20025;-67
2024/01/21 08:21:46;;;;;;;2.38;1.80;;;4.10;57.30;;;;;;5074237;28;20049;-71
2024/01/21 08:24:12;;;;;;;5.53;2.03;;;4.10;56.70;;;;;;5038973;28;20053;-67
2024/01/21 08:26:38;;;;;;;3.38;2.00;;;4.10;56.50;;;;;;5035895;28;20103;-67
2024/01/21 08:29:04;;;;;;;3.35;1.98;;;4.20;57.00;;;;;;5038608;28;20017;-67
2024/01/21 08:31:30;;;;;;;5.10;2.17;;;4.20;56.70;;;;;;5025781;28;20377;-68
2024/01/21 08:33:56;;;;;;;4.75;2.00;;;4.20;56.60;;;;;;5042451;28;20026;-67
2024/01/21 08:36:21;;;;;;;3.40;2.38;;;4.20;56.80;;;;;;5040175;28;20102;-68
2024/01/21 08:38:47;;;;;;;1.88;1.63;;;4.20;56.60;;;;;;5038886;28;20548;-67
2024/01/21 08:41:13;;;;;;;3.13;2.00;;;4.30;57.00;;;;;;5038905;28;20029;-71
2024/01/21 08:43:38;;;;;;;2.05;1.70;;;4.40;57.20;;;;;;5020247;28;20034;-67
2024/01/21 08:46:04;;;;;;;3.60;1.88;;;4.40;57.00;;;;;;5032528;28;20026;-67
2024/01/21 08:48:29;;;;;;;3.92;2.50;;;4.40;56.90;;;;;;5020774;28;20029;-66
2024/01/21 08:50:56;;;;;;;3.97;1.85;;;4.40;56.70;;;;;;5038216;28;20029;-66
2024/01/21 08:53:22;;;;;;;3.17;1.67;;;4.40;56.80;;;;;;5041695;28;20032;-66
2024/01/21 08:55:48;;;;;;;3.25;2.50;;;4.40;56.70;;;;;;5043751;28;20022;-66
2024/01/21 08:58:14;;;;;;;5.45;1.90;;;4.50;56.50;;;;;;5031923;28;20370;-66
2024/01/21 09:00:39;;;;;;;2.25;1.35;;;4.50;56.60;;;;;;5034580;28;20033;-65
2024/01/21 09:03:05;;;;;;;2.90;1.75;;;4.50;57.00;;;;;;5032435;28;20456;-71
2024/01/21 09:05:31;;;;;;;4.90;2.13;;;4.60;57.00;;;;;;5041925;28;20584;-71
2024/01/21 09:07:56;;;;;;;2.63;1.85;;;4.50;56.40;;;;;;5030128;28;20036;-71
2024/01/21 09:10:22;;;;;;;4.50;1.90;;;4.60;56.80;;;;;;5037092;28;20025;-71
2024/01/21 09:12:48;;;;;;;3.63;1.98;;;4.60;56.90;;;;;;5038408;28;20413;-71
2024/01/21 09:15:13;;;;;;;2.83;1.30;;;4.60;57.10;;;;;;5036617;28;20404;-71
2024/01/21 09:17:41;;;;;;;3.67;1.73;;;4.60;57.30;;;;;;5033205;28;20424;-71
2024/01/21 09:20:07;;;;;;;2.67;1.60;;;4.70;57.50;;;;;;5038032;28;20044;-70
2024/01/21 09:22:33;;;;;;;2.25;1.80;;;4.70;57.40;;;;;;5033200;28;20030;-71
2024/01/21 09:24:59;;;;;;;3.72;2.40;;;4.80;57.60;;;;;;5014556;28;20087;-72
2024/01/21 09:27:24;;;;;;;3.67;2.17;;;4.80;57.60;;;;;;5032869;28;20465;-71
2024/01/21 09:29:50;;;;;;;3.05;1.95;;;4.80;57.80;;;;;;5060422;28;20480;-71
2024/01/21 09:32:34;;;;;;;3.72;2.28;;;4.80;57.90;;;;;;5027860;28;20102;-68
2024/01/21 09:34:59;;;;;;;6.32;2.30;;;4.80;58.00;;;;;;5041285;28;20044;-68
2024/01/21 09:37:25;;;;;;;3.63;2.10;;;4.80;58.20;;;;;;5029054;28;20029;-68
2024/01/21 09:39:50;;;;;;;3.83;2.40;;;4.80;58.50;;;;;;5024370;28;20026;-67
2024/01/21 09:42:17;;;;;;;4.57;1.75;;;4.80;58.70;;;;;;5030571;28;20557;-67
2024/01/21 09:44:45;;;;;;;5.65;2.50;;;4.80;59.00;;;;;;5020607;28;20057;-71
2024/01/21 09:47:11;;;;;;;3.97;1.85;;;4.90;59.20;;;;;;5031810;28;20033;-71
2024/01/21 09:49:37;;;;;;;2.83;1.63;;;4.90;59.40;;;;;;5019614;28;20396;-71
2024/01/21 09:52:04;;;;;;;3.72;1.95;;;4.90;59.60;;;;;;5029430;28;20492;-71
2024/01/21 09:54:30;;;;;;;5.05;2.28;;;5.00;59.90;;;;;;5023177;28;20590;-71
2024/01/21 09:56:56;;;;;;;5.93;2.10;;;5.00;60.00;;;;;;5024088;28;20029;-71
2024/01/21 09:59:22;;;;;;;3.60;2.13;;;5.00;60.10;;;;;;5026278;28;20386;-71
2024/01/21 10:01:48;;;;;;;7.43;3.08;;;5.00;60.30;;;;;;5025167;28;20026;-71
2024/01/21 10:04:14;;;;;;;6.03;2.10;;;5.00;60.70;;;;;;5023946;28;20049;-71
2024/01/21 10:06:40;;;;;;;4.97;2.72;;;5.00;60.90;;;;;;5028348;28;20037;-71
2024/01/21 10:09:24;;;;;;;2.55;1.52;;;5.00;61.40;;;;;;5023709;28;20103;-71
2024/01/21 10:11:54;;;;;;;4.47;1.90;;;5.00;61.60;;;;;;5028211;28;20055;-68
2024/01/21 10:14:20;;;;;;;5.13;2.50;;;5.00;61.80;;;;;;5024747;28;20075;-71
2024/01/21 10:16:47;;;;;;;2.20;1.38;;;5.00;62.50;;;;;;5056227;28;20029;-72
2024/01/21 10:19:27;;;;;;;4.40;2.00;;;5.00;62.90;;;;;;5027556;28;20087;-68
2024/01/21 10:22:26;;;;;;;2.63;1.90;;;5.10;63.20;;;;;;5030962;28;20021;-68
2024/01/21 10:24:51;;;;;;;5.40;2.28;;;5.10;63.80;;;;;;4998076;28;20033;-72
2024/01/21 10:27:17;;;;;;;3.67;1.65;;;5.10;64.40;;;;;;5025101;28;20078;-71
2024/01/21 10:29:45;;;;;;;4.22;1.98;;;5.10;64.30;;;;;;5025128;28;20560;-71
2024/01/21 10:32:12;;;;;;;3.50;1.98;;;5.10;64.90;;;;;;5022533;28;20104;-68
2024/01/21 10:34:46;;;;;;;4.35;2.03;;;5.20;65.20;;;;;;5020586;28;20033;-68
2024/01/21 10:37:16;;;;;;;3.65;2.22;;;5.20;65.50;;;;;;5027152;28;20108;-68
2024/01/21 10:39:47;;;;;;;5.90;2.30;;;5.20;65.60;;;;;;5029395;28;20362;-68
2024/01/21 10:42:17;;;;;;;1.70;1.45;;;5.20;65.60;;;;;;5019753;28;20061;-68
2024/01/21 10:44:46;;;;;;;3.17;1.60;;;5.30;66.60;;;;;;5031900;28;20017;-68
2024/01/21 10:47:13;;;;;;;4.75;2.38;;;5.30;66.80;;;;;;5026653;28;20349;-67
2024/01/21 10:49:39;;;;;;;5.82;2.38;;;5.30;67.70;;;;;;5026505;28;20499;-67
2024/01/21 10:52:10;;;;;;;3.38;1.85;;;5.30;67.70;;;;;;5029095;28;20036;-71
2024/01/21 10:54:41;;;;;;;4.90;2.15;;;5.40;67.70;;;;;;5025088;28;20038;-71
2024/01/21 10:57:07;;;;;;;3.15;2.03;;;5.40;68.50;;;;;;5031350;28;20511;-71
2024/01/21 10:59:36;;;;;;;4.25;2.05;;;5.40;68.70;;;;;;5028953;28;20022;-71
2024/01/21 11:02:02;;;;;;;3.20;2.05;;;5.40;69.80;;;;;;5026353;28;20107;-71
2024/01/21 11:04:27;;;;;;;2.83;2.15;;;5.40;70.10;;;;;;5059886;28;20041;-70
2024/01/21 11:06:53;;;;;;;4.07;2.13;;;5.40;69.90;;;;;;5026888;28;20416;-70
2024/01/21 11:09:25;;;;;;;3.50;1.85;;;5.50;70.60;;;;;;5031912;28;20033;-70
2024/01/21 11:11:51;;;;;;;;;;;5.50;71.40;;;;;;5028050;28;20029;-71
2024/01/21 11:14:36;;;;;;;3.83;2.22;;;5.50;72.00;;;;;;5028013;28;20279;-72
2024/01/21 11:17:13;;;;;;;4.30;2.33;;;5.50;72.40;;;;;;5029536;28;20645;-71
2024/01/21 11:19:54;;;;;;;2.40;1.45;;;5.50;72.20;;;;;;5038046;28;20432;-67
2024/01/21 11:22:25;;;;;;;4.18;2.28;;;5.60;72.10;;;;;;5021537;28;20125;-66
2024/01/21 11:24:54;;;;;;;2.92;2.17;;;5.60;72.80;;;;;;5028986;28;20395;-67
2024/01/21 11:27:25;;;;;;;5.05;2.38;;;5.60;73.00;;;;;;5034218;28;20790;-66
2024/01/21 11:29:54;;;;;;;2.63;2.25;;;5.60;73.30;;;;;;5031799;28;20116;-66
2024/01/21 11:32:28;;;;;;;4.88;2.38;;;5.60;72.90;;;;;;5036686;28;20053;-67
2024/01/21 11:34:55;;;;;;;3.55;1.80;;;5.70;73.20;;;;;;5032177;28;20040;-66
2024/01/21 11:37:21;;;;;;;3.25;2.17;;;5.70;73.20;;;;;;5027541;28;20040;-66
2024/01/21 11:39:47;;;;;;;3.28;2.17;;;5.70;73.20;;;;;;5032118;28;20503;-66
2024/01/21 11:42:14;;;;;;;4.30;1.90;;;5.70;73.40;;;;;;5031595;28;20107;-66
2024/01/21 11:44:39;;;;;;;4.47;2.60;;;5.70;73.40;;;;;;5027387;28;20029;-71
2024/01/21 11:47:06;;;;;;;3.75;1.77;;;5.80;73.60;;;;;;5034003;28;20477;-71
2024/01/21 11:49:36;;;;;;;2.88;1.70;;;5.80;73.50;;;;;;5027023;28;20491;-71
2024/01/21 11:52:06;;;;;;;3.08;1.67;;;5.80;73.50;;;;;;5034769;28;20087;-70
2024/01/21 11:54:33;;;;;;;4.70;2.65;;;5.80;73.30;;;;;;5028157;28;20083;-70
2024/01/21 11:57:00;;;;;;;3.58;2.10;;;5.90;73.30;;;;;;5063612;28;20033;-71
2024/01/21 11:59:25;;;;;;;4.20;2.05;;;5.90;73.60;;;;;;5035004;28;20041;-66
2024/01/21 12:01:55;;;;;;;3.28;1.83;;;5.90;73.60;;;;;;5026656;28;20044;-66
2024/01/21 12:04:22;;;;;;;6.22;2.08;;;5.90;73.50;;;;;;5029266;28;20014;-66
2024/01/21 12:06:49;;;;;;;5.13;2.78;;;5.90;73.50;;;;;;5035288;28;20129;-71
2024/01/21 12:09:15;;;;;;;5.95;2.45;;;5.90;73.60;;;;;;5030167;28;20032;-72
2024/01/21 12:11:41;;;;;;;4.95;2.47;;;5.90;73.60;;;;;;5036162;28;20037;-73
2024/01/21 12:14:09;;;;;;;6.05;2.55;;;5.90;73.60;;;;;;5029952;28;20120;-64
2024/01/21 12:16:36;;;;;;;8.15;3.05;;;5.90;73.70;;;;;;5036887;28;20035;-66
2024/01/21 12:19:02;;;;;;;4.25;2.75;;;5.90;73.70;;;;;;5023256;28;20656;-66
2024/01/21 12:21:30;;;;;;;4.35;2.08;;;5.90;73.70;;;;;;5064316;28;20041;-66
2024/01/21 12:23:57;;;;;;;3.58;2.20;;;5.90;73.70;;;;;;5036794;28;20036;-70
2024/01/21 12:26:26;;;;;;;5.20;2.50;;;5.90;73.70;;;;;;5036830;28;20033;-70
2024/01/21 12:29:02;;;;;;;4.50;2.38;;;5.90;73.60;;;;;;5034898;28;20034;-64
2024/01/21 12:31:36;;;;;;;2.70;2.00;;;6.00;73.60;;;;;;5031861;28;20365;-63
2024/01/21 12:34:09;;;;;;;4.10;2.85;;;6.00;73.50;;;;;;5038787;28;20051;-67
2024/01/21 12:36:39;;;;;;;7.22;3.30;;;6.00;73.50;;;;;;5034356;28;20037;-65
2024/01/21 12:39:04;;;;;;;3.03;2.05;;;6.00;73.40;;;;;;5042054;28;20052;-70
2024/01/21 12:41:31;;;;;;;5.47;2.00;;;6.00;73.30;;;;;;5035715;28;20025;-66
2024/01/21 12:43:56;;;;;;;4.15;1.85;;;6.10;73.20;;;;;;5028049;28;20037;-65
2024/01/21 12:46:22;;;;;;;5.82;3.08;;;6.10;73.20;;;;;;5029885;28;20022;-65
2024/01/21 12:48:49;;;;;;;5.00;2.30;;;6.10;73.30;;;;;;5038406;28;20160;-65
2024/01/21 12:51:19;;;;;;;4.05;2.10;;;6.20;73.50;;;;;;5034814;28;20556;-66
2024/01/21 12:53:51;;;;;;;3.47;2.20;;;6.20;73.50;;;;;;5041599;28;20032;-69
2024/01/21 12:56:17;;;;;;;7.68;2.60;;;6.30;73.80;;;;;;5038987;28;20603;-66